Alma Center, WI

8:42 AM CST on November 23, 2014 (GMT -0600)
Black River Falls Area | Change Station
CLOSE
Current Station
Airport
Location: Black River Falls,
Elevation: 837 ft
Nearby Weather Stations
Active Advisory: Special Statement

Elev 837 ft 44.25 °N, 90.86 °W | Updated 7 minutes ago

Overcast
Overcast
47 °F
Feels Like 47 °F
N
0
Wind Variable Wind from North

Today
High -- | Low -- °F
--% Chance of Precip.
Yesterday
High -- | Low -- °F
Precip. -- in
7:10 AM 4:29 PM
New Moon, 1% visible
Pressure 29.55 in
Visibility 0.5 miles
Clouds Overcast 700 ft
Dew Point 47 °F
Humidity 100%
Rainfall 0.07 in
Snow Depth Not available.
UV 0 out of 12
Pollen .10 out of 12
Air Quality Not available.
Flu Activity Not available.
METAR KBCK 231435Z AUTO 00000KT 1/2SM FG OVC007 09/09 A2955 RMK AO2 P0001 T00850085

More Conditions Fewer Conditions

Pressure 29.55 in
Visibility 0.5 miles
Clouds Overcast 700 ft
Dew Point 47 °F
Humidity 100%
Rainfall 0.07 in
Snow Depth Not available.
UV 0 out of 12
Pollen .10 out of 12
Air Quality Not available.
Flu Activity Not available.
METAR KBCK 231435Z AUTO 00000KT 1/2SM FG OVC007 09/09 A2955 RMK AO2 P0001 T00850085

More Conditions Fewer Conditions

10-Day Weather Forecast

Almanac

Astronomy

Nov. 23, 2014 Rise Set
Actual Time
Civil Twilight
Nautical Twilight
Astronomical Twilight
Moon
Length of Visible Light
Length of Day
Tomorrow will be .
, % of the Moon is Illuminated

Today's Extremes

State Highs State Lows

Community

WunderPhotos

Upload Photos

1,773,078 photos uploaded!

WunderBlogs® & News

Nearby

Air Quality

  Air Quality AQ Index Pollutant
Not available.

Snow Depth

Station Depth Elevation

Earthquake Activity

City Distance Mag. Time & Date
Minimum magnitude displayed is 2.5.

Coastal Water Temperatures

Place Temperature

Nearby Weather Stations